sensor_id;sensor_type;location;lat;lon;timestamp;temperature;humidity
47368;DHT22;34646;47.964;7.982;2023-01-16T00:10:04;17.60;91.50
47368;DHT22;34646;47.964;7.982;2023-01-16T00:16:06;17.40;91.40
47368;DHT22;34646;47.964;7.982;2023-01-16T00:28:09;17.30;82.80
47368;DHT22;34646;47.964;7.982;2023-01-16T00:40:11;17.10;91.30
47368;DHT22;34646;47.964;7.982;2023-01-16T01:46:36;17.20;83.60
47368;DHT22;34646;47.964;7.982;2023-01-16T01:52:39;17.00;83.30
47368;DHT22;34646;47.964;7.982;2023-01-16T01:58:39;17.10;84.20
47368;DHT22;34646;47.964;7.982;2023-01-16T02:04:48;17.10;83.60
47368;DHT22;34646;47.964;7.982;2023-01-16T02:10:58;17.10;91.30
47368;DHT22;34646;47.964;7.982;2023-01-16T02:17:17;17.20;91.30
47368;DHT22;34646;47.964;7.982;2023-01-16T02:48:47;17.10;91.30
47368;DHT22;34646;47.964;7.982;2023-01-16T02:55:02;16.70;91.20
47368;DHT22;34646;47.964;7.982;2023-01-16T03:01:06;16.80;83.30
47368;DHT22;34646;47.964;7.982;2023-01-16T03:25:21;16.90;83.30
47368;DHT22;34646;47.964;7.982;2023-01-16T03:31:49;16.90;83.40
47368;DHT22;34646;47.964;7.982;2023-01-16T03:37:57;16.80;91.30
47368;DHT22;34646;47.964;7.982;2023-01-16T03:44:05;16.90;83.60
47368;DHT22;34646;47.964;7.982;2023-01-16T03:50:11;16.80;83.50
47368;DHT22;34646;47.964;7.982;2023-01-16T03:56:20;16.80;84.30
47368;DHT22;34646;47.964;7.982;2023-01-16T04:02:32;16.70;81.10
47368;DHT22;34646;47.964;7.982;2023-01-16T04:08:39;16.60;83.30
47368;DHT22;34646;47.964;7.982;2023-01-16T04:14:42;16.80;82.00
47368;DHT22;34646;47.964;7.982;2023-01-16T04:20:45;16.70;91.20
47368;DHT22;34646;47.964;7.982;2023-01-16T04:50:51;17.00;91.30
47368;DHT22;34646;47.964;7.982;2023-01-16T05:02:53;16.90;91.30
47368;DHT22;34646;47.964;7.982;2023-01-16T05:26:57;16.80;82.90
47368;DHT22;34646;47.964;7.982;2023-01-16T07:15:18;16.80;82.80
47368;DHT22;34646;47.964;7.982;2023-01-16T07:21:42;16.60;83.40
47368;DHT22;34646;47.964;7.982;2023-01-16T08:16:11;16.40;91.40
47368;DHT22;34646;47.964;7.982;2023-01-16T08:40:16;16.40;83.40
47368;DHT22;34646;47.964;7.982;2023-01-16T09:41:14;16.40;91.40
47368;DHT22;34646;47.964;7.982;2023-01-16T09:53:52;16.50;84.80
47368;DHT22;34646;47.964;7.982;2023-01-16T10:00:15;16.20;91.40
47368;DHT22;34646;47.964;7.982;2023-01-16T10:12:21;16.50;83.60
47368;DHT22;34646;47.964;7.982;2023-01-16T10:30:41;16.70;84.00
47368;DHT22;34646;47.964;7.982;2023-01-16T10:36:48;16.40;83.80
47368;DHT22;34646;47.964;7.982;2023-01-16T10:43:03;16.30;83.70
47368;DHT22;34646;47.964;7.982;2023-01-16T11:01:30;16.50;84.00
47368;DHT22;34646;47.964;7.982;2023-01-16T11:07:33;16.40;83.90
47368;DHT22;34646;47.964;7.982;2023-01-16T11:25:55;16.20;91.30
47368;DHT22;34646;47.964;7.982;2023-01-16T11:32:00;16.50;83.40
47368;DHT22;34646;47.964;7.982;2023-01-16T11:50:35;17.00;82.70
47368;DHT22;34646;47.964;7.982;2023-01-16T11:56:57;17.20;80.40
47368;DHT22;34646;47.964;7.982;2023-01-16T12:09:50;16.60;90.50
47368;DHT22;34646;47.964;7.982;2023-01-16T12:59:07;16.80;83.70
47368;DHT22;34646;47.964;7.982;2023-01-16T13:05:15;17.00;83.60
47368;DHT22;34646;47.964;7.982;2023-01-16T13:11:25;16.90;84.40
47368;DHT22;34646;47.964;7.982;2023-01-16T13:17:52;17.20;84.20
47368;DHT22;34646;47.964;7.982;2023-01-16T13:24:10;17.00;84.10
47368;DHT22;34646;47.964;7.982;2023-01-16T13:30:16;17.00;83.30
47368;DHT22;34646;47.964;7.982;2023-01-16T13:43:18;16.60;90.70
47368;DHT22;34646;47.964;7.982;2023-01-16T14:21:09;16.80;83.00
47368;DHT22;34646;47.964;7.982;2023-01-16T14:27:15;17.00;82.80
47368;DHT22;34646;47.964;7.982;2023-01-16T14:33:18;16.90;82.90
47368;DHT22;34646;47.964;7.982;2023-01-16T14:39:34;16.90;83.60
47368;DHT22;34646;47.964;7.982;2023-01-16T14:45:37;16.90;82.20
47368;DHT22;34646;47.964;7.982;2023-01-16T14:51:59;17.00;82.20
47368;DHT22;34646;47.964;7.982;2023-01-16T14:58:49;16.50;79.50
47368;DHT22;34646;47.964;7.982;2023-01-16T15:11:12;16.80;90.50
47368;DHT22;34646;47.964;7.982;2023-01-16T15:17:37;16.70;81.70
47368;DHT22;34646;47.964;7.982;2023-01-16T15:30:05;16.60;81.60
47368;DHT22;34646;47.964;7.982;2023-01-16T15:42:25;16.80;82.60
47368;DHT22;34646;47.964;7.982;2023-01-16T15:49:03;17.20;79.00
47368;DHT22;34646;47.964;7.982;2023-01-16T15:55:10;16.90;78.70
47368;DHT22;34646;47.964;7.982;2023-01-16T16:13:16;16.90;81.50
47368;DHT22;34646;47.964;7.982;2023-01-16T16:19:34;17.10;82.00
47368;DHT22;34646;47.964;7.982;2023-01-16T16:31:48;17.30;81.60
47368;DHT22;34646;47.964;7.982;2023-01-16T16:43:57;16.60;90.20
47368;DHT22;34646;47.964;7.982;2023-01-16T16:56:11;17.00;90.30
47368;DHT22;34646;47.964;7.982;2023-01-16T17:08:16;16.80;81.10
47368;DHT22;34646;47.964;7.982;2023-01-16T17:20:20;16.80;89.80
47368;DHT22;34646;47.964;7.982;2023-01-16T17:32:28;17.50;80.50
47368;DHT22;34646;47.964;7.982;2023-01-16T17:50:54;16.90;89.90
47368;DHT22;34646;47.964;7.982;2023-01-16T18:52:27;17.00;80.40
47368;DHT22;34646;47.964;7.982;2023-01-16T19:05:08;17.00;80.50
47368;DHT22;34646;47.964;7.982;2023-01-16T19:29:14;17.20;82.20
47368;DHT22;34646;47.964;7.982;2023-01-16T20:30:04;16.90;83.20
47368;DHT22;34646;47.964;7.982;2023-01-16T21:55:54;16.70;83.40
47368;DHT22;34646;47.964;7.982;2023-01-16T22:13:57;17.00;91.20
47368;DHT22;34646;47.964;7.982;2023-01-16T22:20:22;16.80;83.50
47368;DHT22;34646;47.964;7.982;2023-01-16T22:38:37;16.90;91.10
47368;DHT22;34646;47.964;7.982;2023-01-16T22:51:06;17.10;81.30
47368;DHT22;34646;47.964;7.982;2023-01-16T23:21:15;16.70;91.00
47368;DHT22;34646;47.964;7.982;2023-01-16T23:57:23;16.60;82.70
